Map

Track Data

SID SEASON NUMBER BASIN SUBBASIN NAME ISO_TIME NATURE LAT LON WMO_WIND WMO_PRES WMO_AGENCY TRACK_TYPE DIST2LAND LANDFALL IFLAG USA_AGENCY USA_ATCF_ID USA_LAT USA_LON USA_RECORD USA_STATUS USA_WIND USA_PRES USA_SSHS USA_R34_NE USA_R34_SE USA_R34_SW USA_R34_NW USA_R50_NE USA_R50_SE USA_R50_SW USA_R50_NW USA_R64_NE USA_R64_SE USA_R64_SW USA_R64_NW USA_POCI USA_ROCI USA_RMW USA_EYE TOKYO_LAT TOKYO_LON TOKYO_GRADE TOKYO_WIND TOKYO_PRES TOKYO_R50_DIR TOKYO_R50_LONG TOKYO_R50_SHORT TOKYO_R30_DIR TOKYO_R30_LONG TOKYO_R30_SHORT TOKYO_LAND CMA_LAT CMA_LON CMA_CAT CMA_WIND CMA_PRES HKO_LAT HKO_LON HKO_CAT HKO_WIND HKO_PRES NEWDELHI_LAT NEWDELHI_LON NEWDELHI_GRADE NEWDELHI_WIND NEWDELHI_PRES NEWDELHI_CI NEWDELHI_DP NEWDELHI_POCI REUNION_LAT REUNION_LON REUNION_TYPE REUNION_WIND REUNION_PRES REUNION_TNUM REUNION_CI REUNION_RMW REUNION_R34_NE REUNION_R34_SE REUNION_R34_SW REUNION_R34_NW REUNION_R50_NE REUNION_R50_SE REUNION_R50_SW REUNION_R50_NW REUNION_R64_NE REUNION_R64_SE REUNION_R64_SW REUNION_R64_NW BOM_LAT BOM_LON BOM_TYPE BOM_WIND BOM_PRES BOM_TNUM BOM_CI BOM_RMW BOM_R34_NE BOM_R34_SE BOM_R34_SW BOM_R34_NW BOM_R50_NE BOM_R50_SE BOM_R50_SW BOM_R50_NW BOM_R64_NE BOM_R64_SE BOM_R64_SW BOM_R64_NW BOM_ROCI BOM_POCI BOM_EYE BOM_POS_METHOD BOM_PRES_METHOD NADI_LAT NADI_LON NADI_CAT NADI_WIND NADI_PRES WELLINGTON_LAT WELLINGTON_LON WELLINGTON_WIND WELLINGTON_PRES DS824_LAT DS824_LON DS824_STAGE DS824_WIND DS824_PRES TD9636_LAT TD9636_LON TD9636_STAGE TD9636_WIND TD9636_PRES TD9635_LAT TD9635_LON TD9635_WIND TD9635_PRES TD9635_ROCI NEUMANN_LAT NEUMANN_LON NEUMANN_CLASS NEUMANN_WIND NEUMANN_PRES MLC_LAT MLC_LON MLC_CLASS MLC_WIND MLC_PRES USA_GUST BOM_GUST BOM_GUST_PER REUNION_GUST REUNION_GUST_PER USA_SEAHGT USA_SEARAD_NE USA_SEARAD_SE USA_SEARAD_SW USA_SEARAD_NW STORM_SPEED STORM_DIR
2000277N15257 2000 92 EP MM OLIVIA 2000-10-02 12:00:00 TS 15.3000 -103.100 25 1006 hurdat_epa main 303 303 O_____________ hurdat_epa EP172000 15.3000 -103.100 TD 25 1006 -1 4 270
2000277N15257 2000 92 EP MM OLIVIA 2000-10-02 15:00:00 TS 15.3000 -103.308 main 309 309 P_____________ EP172000 15.3000 -103.308 TD 27 1005 -1 4 270
2000277N15257 2000 92 EP MM OLIVIA 2000-10-02 18:00:00 TS 15.3000 -103.500 30 1005 hurdat_epa main 317 317 O_____________ hurdat_epa EP172000 15.3000 -103.500 TD 30 1005 -1 3 270
2000277N15257 2000 92 EP MM OLIVIA 2000-10-02 21:00:00 TS 15.3000 -103.665 main 324 324 P_____________ EP172000 15.3000 -103.665 TD 32 1005 -1 3 270
2000277N15257 2000 92 EP MM OLIVIA 2000-10-03 00:00:00 TS 15.3000 -103.800 35 1005 hurdat_epa main 327 327 O_____________ hurdat_epa EP172000 15.3000 -103.800 TS 35 1005 0 2 270
2000277N15257 2000 92 EP MM OLIVIA 2000-10-03 03:00:00 TS 15.3000 -103.908 main 330 330 P_____________ EP172000 15.3000 -103.908 TS 35 1004 0 2 270
2000277N15257 2000 92 EP MM OLIVIA 2000-10-03 06:00:00 TS 15.3000 -104.000 35 1003 hurdat_epa main 334 334 O_____________ hurdat_epa EP172000 15.3000 -104.000 TS 35 1003 0 2 268
2000277N15257 2000 92 EP MM OLIVIA 2000-10-03 09:00:00 TS 15.2925 -104.093 main 338 338 P_____________ EP172000 15.2925 -104.093 TS 37 1002 0 2 270
2000277N15257 2000 92 EP MM OLIVIA 2000-10-03 12:00:00 TS 15.3000 -104.200 40 1002 hurdat_epa main 341 341 O_____________ hurdat_epa EP172000 15.3000 -104.200 TS 40 1002 0 2 282
2000277N15257 2000 92 EP MM OLIVIA 2000-10-03 15:00:00 TS 15.3425 -104.342 main 345 338 P_____________ EP172000 15.3425 -104.342 TS 47 998 0 3 289
2000277N15257 2000 92 EP MM OLIVIA 2000-10-03 18:00:00 TS 15.4000 -104.500 55 994 hurdat_epa main 341 341 O_____________ hurdat_epa EP172000 15.4000 -104.500 TS 55 994 0 3 289
2000277N15257 2000 92 EP MM OLIVIA 2000-10-03 21:00:00 TS 15.4425 -104.643 main 345 338 P_____________ EP172000 15.4425 -104.643 TS 55 994 0 3 289
2000277N15257 2000 92 EP MM OLIVIA 2000-10-04 00:00:00 TS 15.5000 -104.800 55 994 hurdat_epa main 342 336 O_____________ hurdat_epa EP172000 15.5000 -104.800 TS 55 994 0 4 295
2000277N15257 2000 92 EP MM OLIVIA 2000-10-04 03:00:00 TS 15.6000 -105.000 main 341 337 P_____________ EP172000 15.6000 -105.000 TS 55 994 0 4 297
2000277N15257 2000 92 EP MM OLIVIA 2000-10-04 06:00:00 TS 15.7000 -105.200 55 994 hurdat_epa main 342 338 O_____________ hurdat_epa EP172000 15.7000 -105.200 TS 55 994 0 4 295
2000277N15257 2000 92 EP MM OLIVIA 2000-10-04 09:00:00 TS 15.7575 -105.350 main 345 345 P_____________ EP172000 15.7575 -105.350 TS 55 994 0 3 289
2000277N15257 2000 92 EP MM OLIVIA 2000-10-04 12:00:00 TS 15.8000 -105.500 55 994 hurdat_epa main 351 351 O_____________ hurdat_epa EP172000 15.8000 -105.500 TS 55 994 0 3 286
2000277N15257 2000 92 EP MM OLIVIA 2000-10-04 15:00:00 TS 15.8499 -105.678 main 364 356 P_____________ EP172000 15.8500 -105.678 TS 55 994 0 4 285
2000277N15257 2000 92 EP MM OLIVIA 2000-10-04 18:00:00 TS 15.9000 -105.900 55 994 hurdat_epa main 370 370 O_____________ hurdat_epa EP172000 15.9000 -105.900 TS 55 994 0 5 282
2000277N15257 2000 92 EP MM OLIVIA 2000-10-04 21:00:00 TS 15.9575 -106.192 main 385 385 P_____________ EP172000 15.9575 -106.192 TS 55 994 0 6 280
2000277N15257 2000 92 EP MM OLIVIA 2000-10-05 00:00:00 TS 16.0000 -106.500 55 994 hurdat_epa main 400 400 O_____________ hurdat_epa EP172000 16.0000 -106.500 TS 55 994 0 5 276
2000277N15257 2000 92 EP MM OLIVIA 2000-10-05 03:00:00 TS 16.0149 -106.750 main 416 416 P_____________ EP172000 16.0149 -106.750 TS 55 994 0 5 270
2000277N15257 2000 92 EP MM OLIVIA 2000-10-05 06:00:00 TS 16.0000 -107.000 55 994 hurdat_epa main 427 427 O_____________ hurdat_epa EP172000 16.0000 -107.000 TS 55 994 0 5 264
2000277N15257 2000 92 EP MM OLIVIA 2000-10-05 09:00:00 TS 15.9575 -107.308 main 445 445 P_____________ EP172000 15.9575 -107.308 TS 52 994 0 6 260
2000277N15257 2000 92 EP MM OLIVIA 2000-10-05 12:00:00 TS 15.9000 -107.600 50 994 hurdat_epa main 473 473 O_____________ hurdat_epa EP172000 15.9000 -107.600 TS 50 994 0 5 258
2000277N15257 2000 92 EP MM OLIVIA 2000-10-05 15:00:00 TS 15.8499 -107.815 main 495 495 P_____________ EP172000 15.8499 -107.815 TS 50 997 0 4 255
2000277N15257 2000 92 EP MM OLIVIA 2000-10-05 18:00:00 TS 15.8000 -108.000 50 1000 hurdat_epa main 509 509 O_____________ hurdat_epa EP172000 15.8000 -108.000 TS 50 1000 0 4 255
2000277N15257 2000 92 EP MM OLIVIA 2000-10-05 21:00:00 TS 15.7500 -108.207 main 524 524 P_____________ EP172000 15.7500 -108.208 TS 47 1000 0 4 255
2000277N15257 2000 92 EP MM OLIVIA 2000-10-06 00:00:00 TS 15.7000 -108.400 45 1000 hurdat_epa main 547 547 O_____________ hurdat_epa EP172000 15.7000 -108.400 TS 45 1000 0 3 253
2000277N15257 2000 92 EP MM OLIVIA 2000-10-06 03:00:00 TS 15.6500 -108.550 main 562 562 P_____________ EP172000 15.6500 -108.550 TS 40 1001 0 3 251
2000277N15257 2000 92 EP MM OLIVIA 2000-10-06 06:00:00 TS 15.6000 -108.700 35 1002 hurdat_epa main 577 577 O_____________ hurdat_epa EP172000 15.6000 -108.700 TS 35 1002 0 3 251
2000277N15257 2000 92 EP MM OLIVIA 2000-10-06 09:00:00 TS 15.5350 -108.893 main 600 600 P_____________ EP172000 15.5350 -108.893 TS 40 1001 0 4 255
2000277N15257 2000 92 EP MM OLIVIA 2000-10-06 12:00:00 TS 15.5000 -109.100 45 1001 hurdat_epa main 615 615 O_____________ hurdat_epa EP172000 15.5000 -109.100 TS 45 1001 0 4 268
2000277N15257 2000 92 EP MM OLIVIA 2000-10-06 15:00:00 TS 15.5200 -109.293 main 631 631 P_____________ EP172000 15.5200 -109.293 TS 45 1002 0 4 285
2000277N15257 2000 92 EP MM OLIVIA 2000-10-06 18:00:00 TS 15.6000 -109.500 45 1003 hurdat_epa main 639 638 O_____________ hurdat_epa EP172000 15.6000 -109.500 TS 45 1003 0 5 298
2000277N15257 2000 92 EP MM OLIVIA 2000-10-06 21:00:00 TS 15.7425 -109.735 main 646 638 P_____________ EP172000 15.7425 -109.735 TS 45 1002 0 6 302
2000277N15257 2000 92 EP MM OLIVIA 2000-10-07 00:00:00 TS 15.9000 -110.000 45 1002 hurdat_epa main 654 654 O_____________ hurdat_epa EP172000 15.9000 -110.000 TS 45 1002 0 6 295
2000277N15257 2000 92 EP MM OLIVIA 2000-10-07 03:00:00 TS 15.9925 -110.285 main 671 671 P_____________ EP172000 15.9925 -110.285 TS 45 1001 0 6 289
2000277N15257 2000 92 EP MM OLIVIA 2000-10-07 06:00:00 TS 16.1000 -110.600 45 1000 hurdat_epa main 690 690 O_____________ hurdat_epa EP172000 16.1000 -110.600 TS 45 1000 0 7 295
2000277N15257 2000 92 EP MM OLIVIA 2000-10-07 09:00:00 TS 16.2850 -110.950 main 703 703 P_____________ EP172000 16.2850 -110.950 TS 45 998 0 8 301
2000277N15257 2000 92 EP MM OLIVIA 2000-10-07 12:00:00 TS 16.5000 -111.300 45 997 hurdat_epa main 726 713 O_____________ hurdat_epa EP172000 16.5000 -111.300 TS 45 997 0 8 303
2000277N15257 2000 92 EP MM OLIVIA 2000-10-07 15:00:00 TS 16.6924 -111.608 main 713 696 P_____________ EP172000 16.6924 -111.608 TS 45 995 0 7 305
2000277N15257 2000 92 EP MM OLIVIA 2000-10-07 18:00:00 TS 16.9000 -111.900 45 994 hurdat_epa main 699 684 O_____________ hurdat_epa EP172000 16.9000 -111.900 TS 45 994 0 7 310
2000277N15257 2000 92 EP MM OLIVIA 2000-10-07 21:00:00 TS 17.1499 -112.185 main 688 664 P_____________ EP172000 17.1499 -112.185 TS 47 995 0 8 311
2000277N15257 2000 92 EP MM OLIVIA 2000-10-08 00:00:00 TS 17.4000 -112.500 50 997 hurdat_epa main 668 660 O_____________ hurdat_epa EP172000 17.4000 -112.500 TS 50 997 0 8 305
2000277N15257 2000 92 EP MM OLIVIA 2000-10-08 03:00:00 TS 17.6150 -112.893 main 665 660 P_____________ EP172000 17.6150 -112.893 TS 52 998 0 9 298
2000277N15257 2000 92 EP MM OLIVIA 2000-10-08 06:00:00 TS 17.8000 -113.300 55 1000 hurdat_epa main 666 661 O_____________ hurdat_epa EP172000 17.8000 -113.300 TS 55 1000 0 8 295
2000277N15257 2000 92 EP MM OLIVIA 2000-10-08 09:00:00 TS 17.9498 -113.643 main 673 669 P_____________ EP172000 17.9498 -113.643 TS 52 1000 0 7 294
2000277N15257 2000 92 EP MM OLIVIA 2000-10-08 12:00:00 TS 18.1000 -114.000 50 1000 hurdat_epa main 679 676 O_____________ hurdat_epa EP172000 18.1000 -114.000 TS 50 1000 0 8 294
2000277N15257 2000 92 EP MM OLIVIA 2000-10-08 15:00:00 TS 18.2925 -114.442 main 688 688 P_____________ EP172000 18.2925 -114.442 TS 45 1000 0 9 295
2000277N15257 2000 92 EP MM OLIVIA 2000-10-08 18:00:00 TS 18.5000 -114.900 40 1000 hurdat_epa main 708 707 O_____________ hurdat_epa EP172000 18.5000 -114.900 TS 40 1000 0 9 296
2000277N15257 2000 92 EP MM OLIVIA 2000-10-08 21:00:00 TS 18.6923 -115.300 main 723 723 P_____________ EP172000 18.6923 -115.300 TS 37 1002 0 9 298
2000277N15257 2000 92 EP MM OLIVIA 2000-10-09 00:00:00 TS 18.9000 -115.700 35 1004 hurdat_epa main 741 740 O_____________ hurdat_epa EP172000 18.9000 -115.700 TS 35 1004 0 9 299
2000277N15257 2000 92 EP MM OLIVIA 2000-10-09 03:00:00 TS 19.1425 -116.150 main 755 745 P_____________ EP172000 19.1425 -116.150 TS 32 1005 -1 10 300
2000277N15257 2000 92 EP MM OLIVIA 2000-10-09 06:00:00 TS 19.4000 -116.600 30 1006 hurdat_epa main 752 749 O_____________ hurdat_epa EP172000 19.4000 -116.600 TD 30 1006 -1 10 302
2000277N15257 2000 92 EP MM OLIVIA 2000-10-09 09:00:00 TS 19.6575 -117.037 main 752 752 P_____________ EP172000 19.6575 -117.037 TD 30 1006 -1 9 304
2000277N15257 2000 92 EP MM OLIVIA 2000-10-09 12:00:00 TS 19.9000 -117.400 30 1006 hurdat_epa main 764 763 O_____________ hurdat_epa EP172000 19.9000 -117.400 TD 30 1006 -1 7 309
2000277N15257 2000 92 EP MM OLIVIA 2000-10-09 15:00:00 TS 20.1073 -117.623 main 763 763 P_____________ EP172000 20.1073 -117.623 TD 30 1006 -1 6 317
2000277N15257 2000 92 EP MM OLIVIA 2000-10-09 18:00:00 TS 20.3000 -117.800 30 1006 hurdat_epa main 763 763 O_____________ hurdat_epa EP172000 20.3000 -117.800 TD 30 1006 -1 6 315
2000277N15257 2000 92 EP MM OLIVIA 2000-10-09 21:00:00 TS 20.5075 -118.050 main 764 764 P_____________ EP172000 20.5075 -118.050 TD 27 1006 -1 6 311
2000277N15257 2000 92 EP MM OLIVIA 2000-10-10 00:00:00 TS 20.7000 -118.300 25 1007 hurdat_epa main 775 775 O_____________ hurdat_epa EP172000 20.7000 -118.300 TD 25 1007 -1 6 309
2000277N15257 2000 92 EP MM OLIVIA 2000-10-10 03:00:00 TS 20.8600 -118.512 main 778 778 P_____________ EP172000 20.8600 -118.512 TD 22 1007 -1 5 309
2000277N15257 2000 92 EP MM OLIVIA 2000-10-10 06:00:00 TS 21.0000 -118.700 20 1008 hurdat_epa main 789 O_____________ hurdat_epa EP172000 21.0000 -118.700 TD 20 1008 -1 4 308

About IBTrACS Database

This database is a web-friendly format of International Best Track Archive for Climate Stewardship (IBTrACS), a global best track data archive curated by NOAA dating back to 1842.

Updated: 2021-12-03